sensor_id;sensor_type;location;lat;lon;timestamp;pressure;altitude;pressure_sealevel;temperature;humidity
75895;BME280;64573;50.328;15.014;2023-10-09T00:01:48;99656.75;;;15.58;100.00
75895;BME280;64573;50.328;15.014;2023-10-09T00:04:13;99631.97;;;15.27;100.00
75895;BME280;64573;50.328;15.014;2023-10-09T00:06:41;99632.88;;;15.62;100.00
75895;BME280;64573;50.328;15.014;2023-10-09T00:09:09;99626.34;;;14.79;100.00
75895;BME280;64573;50.328;15.014;2023-10-09T00:11:50;99639.59;;;14.95;100.00
75895;BME280;64573;50.328;15.014;2023-10-09T00:14:23;99636.97;;;14.80;100.00
75895;BME280;64573;50.328;15.014;2023-10-09T00:16:48;99636.09;;;15.23;100.00
75895;BME280;64573;50.328;15.014;2023-10-09T00:19:21;99626.28;;;15.15;100.00
75895;BME280;64573;50.328;15.014;2023-10-09T00:21:55;99622.88;;;14.64;100.00
75895;BME280;64573;50.328;15.014;2023-10-09T00:24:21;99624.56;;;15.07;100.00
75895;BME280;64573;50.328;15.014;2023-10-09T00:26:53;99628.03;;;14.80;100.00
75895;BME280;64573;50.328;15.014;2023-10-09T00:29:36;99611.44;;;15.32;100.00
75895;BME280;64573;50.328;15.014;2023-10-09T00:32:07;99607.41;;;15.22;100.00
75895;BME280;64573;50.328;15.014;2023-10-09T00:34:42;99618.88;;;14.59;100.00
75895;BME280;64573;50.328;15.014;2023-10-09T00:37:08;99596.66;;;14.79;100.00
75895;BME280;64573;50.328;15.014;2023-10-09T00:39:42;99603.72;;;14.58;100.00
75895;BME280;64573;50.328;15.014;2023-10-09T00:42:14;99588.94;;;14.40;100.00
75895;BME280;64573;50.328;15.014;2023-10-09T00:44:41;99572.19;;;14.44;100.00
75895;BME280;64573;50.328;15.014;2023-10-09T00:47:11;99568.59;;;14.37;100.00
75895;BME280;64573;50.328;15.014;2023-10-09T00:49:51;99553.31;;;14.87;100.00
75895;BME280;64573;50.328;15.014;2023-10-09T00:52:32;99527.03;;;14.53;100.00
75895;BME280;64573;50.328;15.014;2023-10-09T00:55:08;99519.59;;;14.19;100.00
75895;BME280;64573;50.328;15.014;2023-10-09T00:58:01;99531.13;;;13.91;100.00
75895;BME280;64573;50.328;15.014;2023-10-09T01:00:30;99535.47;;;14.07;100.00
75895;BME280;64573;50.328;15.014;2023-10-09T01:03:15;99529.25;;;14.06;100.00
75895;BME280;64573;50.328;15.014;2023-10-09T01:05:51;99526.13;;;14.67;100.00
75895;BME280;64573;50.328;15.014;2023-10-09T01:08:21;99520.66;;;14.82;100.00
75895;BME280;64573;50.328;15.014;2023-10-09T01:10:58;99507.16;;;14.39;100.00
75895;BME280;64573;50.328;15.014;2023-10-09T01:13:34;99505.47;;;14.17;100.00
75895;BME280;64573;50.328;15.014;2023-10-09T01:16:26;99504.25;;;14.83;100.00
75895;BME280;64573;50.328;15.014;2023-10-09T01:18:55;99500.44;;;14.99;100.00
75895;BME280;64573;50.328;15.014;2023-10-09T01:21:22;99491.25;;;14.94;100.00
75895;BME280;64573;50.328;15.014;2023-10-09T01:23:56;99491.25;;;14.94;100.00
75895;BME280;64573;50.328;15.014;2023-10-09T01:26:35;99493.34;;;14.98;100.00
75895;BME280;64573;50.328;15.014;2023-10-09T01:29:18;99502.75;;;14.53;100.00
75895;BME280;64573;50.328;15.014;2023-10-09T01:31:51;99497.13;;;14.33;100.00
75895;BME280;64573;50.328;15.014;2023-10-09T01:34:28;99508.72;;;14.48;100.00
75895;BME280;64573;50.328;15.014;2023-10-09T01:37:10;99490.75;;;14.83;100.00
75895;BME280;64573;50.328;15.014;2023-10-09T01:39:51;99481.28;;;14.23;100.00
75895;BME280;64573;50.328;15.014;2023-10-09T01:42:18;99483.16;;;13.87;100.00
75895;BME280;64573;50.328;15.014;2023-10-09T01:44:57;99488.94;;;14.20;100.00
75895;BME280;64573;50.328;15.014;2023-10-09T01:47:45;99499.84;;;14.54;100.00
75895;BME280;64573;50.328;15.014;2023-10-09T01:50:17;99503.53;;;14.47;100.00
75895;BME280;64573;50.328;15.014;2023-10-09T01:52:47;99462.59;;;14.22;100.00
75895;BME280;64573;50.328;15.014;2023-10-09T01:55:13;99454.47;;;14.65;100.00
75895;BME280;64573;50.328;15.014;2023-10-09T01:57:52;99412.69;;;14.88;100.00
75895;BME280;64573;50.328;15.014;2023-10-09T02:00:18;99394.69;;;13.97;100.00
75895;BME280;64573;50.328;15.014;2023-10-09T02:02:48;99428.16;;;14.02;100.00
75895;BME280;64573;50.328;15.014;2023-10-09T02:05:15;99429.69;;;14.33;100.00
75895;BME280;64573;50.328;15.014;2023-10-09T02:07:44;99430.66;;;14.47;100.00
75895;BME280;64573;50.328;15.014;2023-10-09T02:10:14;99443.63;;;14.37;100.00
75895;BME280;64573;50.328;15.014;2023-10-09T02:12:58;99441.16;;;14.91;100.00
75895;BME280;64573;50.328;15.014;2023-10-09T02:15:28;99439.13;;;14.44;100.00
75895;BME280;64573;50.328;15.014;2023-10-09T02:18:05;99441.56;;;14.39;100.00
75895;BME280;64573;50.328;15.014;2023-10-09T02:20:42;99432.97;;;13.86;100.00
75895;BME280;64573;50.328;15.014;2023-10-09T02:23:10;99443.91;;;13.63;100.00
75895;BME280;64573;50.328;15.014;2023-10-09T02:25:38;99437.56;;;13.70;100.00
75895;BME280;64573;50.328;15.014;2023-10-09T02:28:08;99427.66;;;13.56;100.00
75895;BME280;64573;50.328;15.014;2023-10-09T02:30:34;99415.19;;;14.13;100.00
75895;BME280;64573;50.328;15.014;2023-10-09T02:32:59;99419.66;;;13.63;100.00
75895;BME280;64573;50.328;15.014;2023-10-09T02:35:33;99403.94;;;13.66;100.00
75895;BME280;64573;50.328;15.014;2023-10-09T02:38:03;99402.94;;;13.52;100.00
75895;BME280;64573;50.328;15.014;2023-10-09T02:40:32;99400.97;;;13.83;100.00
75895;BME280;64573;50.328;15.014;2023-10-09T02:42:58;99384.56;;;13.56;100.00
75895;BME280;64573;50.328;15.014;2023-10-09T02:45:23;99388.28;;;13.55;100.00
75895;BME280;64573;50.328;15.014;2023-10-09T02:47:54;99385.88;;;13.16;100.00
75895;BME280;64573;50.328;15.014;2023-10-09T02:50:21;99384.78;;;13.10;100.00
75895;BME280;64573;50.328;15.014;2023-10-09T02:52:48;99381.63;;;13.07;100.00
75895;BME280;64573;50.328;15.014;2023-10-09T02:55:24;99373.16;;;13.39;100.00
75895;BME280;64573;50.328;15.014;2023-10-09T02:57:55;99361.63;;;13.45;100.00
75895;BME280;64573;50.328;15.014;2023-10-09T03:00:36;99374.72;;;13.48;100.00
75895;BME280;64573;50.328;15.014;2023-10-09T03:03:03;99377.69;;;13.39;100.00
75895;BME280;64573;50.328;15.014;2023-10-09T03:05:32;99372.53;;;13.22;100.00
75895;BME280;64573;50.328;15.014;2023-10-09T03:07:58;99356.84;;;13.62;100.00
75895;BME280;64573;50.328;15.014;2023-10-09T03:10:24;99332.75;;;13.61;100.00
75895;BME280;64573;50.328;15.014;2023-10-09T03:12:51;99336.41;;;13.74;100.00
75895;BME280;64573;50.328;15.014;2023-10-09T03:15:17;99322.94;;;14.24;100.00
75895;BME280;64573;50.328;15.014;2023-10-09T03:17:44;99314.06;;;14.30;100.00
75895;BME280;64573;50.328;15.014;2023-10-09T03:20:09;99311.66;;;13.43;100.00
75895;BME280;64573;50.328;15.014;2023-10-09T03:22:39;99305.63;;;13.41;100.00
75895;BME280;64573;50.328;15.014;2023-10-09T03:25:06;99288.16;;;13.58;100.00
75895;BME280;64573;50.328;15.014;2023-10-09T03:27:39;99285.28;;;13.38;100.00
75895;BME280;64573;50.328;15.014;2023-10-09T03:30:08;99293.69;;;13.50;100.00
75895;BME280;64573;50.328;15.014;2023-10-09T03:32:35;99294.97;;;13.54;100.00
75895;BME280;64573;50.328;15.014;2023-10-09T03:35:01;99284.56;;;13.72;100.00
75895;BME280;64573;50.328;15.014;2023-10-09T03:37:28;99278.56;;;13.70;100.00
75895;BME280;64573;50.328;15.014;2023-10-09T03:40:01;99269.56;;;14.19;100.00
75895;BME280;64573;50.328;15.014;2023-10-09T03:42:26;99254.09;;;14.28;100.00
75895;BME280;64573;50.328;15.014;2023-10-09T03:44:51;99245.81;;;14.01;100.00
75895;BME280;64573;50.328;15.014;2023-10-09T03:47:22;99242.19;;;13.38;100.00
75895;BME280;64573;50.328;15.014;2023-10-09T03:49:51;99232.47;;;13.65;100.00
75895;BME280;64573;50.328;15.014;2023-10-09T03:52:17;99230.81;;;13.64;100.00
75895;BME280;64573;50.328;15.014;2023-10-09T03:54:44;99227.25;;;13.36;100.00
75895;BME280;64573;50.328;15.014;2023-10-09T03:57:11;99221.22;;;13.55;100.00
75895;BME280;64573;50.328;15.014;2023-10-09T03:59:36;99227.28;;;13.92;100.00
75895;BME280;64573;50.328;15.014;2023-10-09T04:02:02;99222.59;;;13.72;100.00
75895;BME280;64573;50.328;15.014;2023-10-09T04:04:29;99220.38;;;13.55;100.00
75895;BME280;64573;50.328;15.014;2023-10-09T04:06:57;99217.50;;;14.19;100.00
75895;BME280;64573;50.328;15.014;2023-10-09T04:09:22;99206.66;;;14.05;100.00
75895;BME280;64573;50.328;15.014;2023-10-09T04:11:54;99215.06;;;13.68;100.00
75895;BME280;64573;50.328;15.014;2023-10-09T04:14:35;99209.16;;;12.93;100.00
75895;BME280;64573;50.328;15.014;2023-10-09T04:17:01;99202.13;;;13.14;100.00
75895;BME280;64573;50.328;15.014;2023-10-09T04:19:32;99181.97;;;12.88;100.00
75895;BME280;64573;50.328;15.014;2023-10-09T04:22:16;99171.88;;;13.12;100.00
75895;BME280;64573;50.328;15.014;2023-10-09T04:24:52;99160.38;;;12.82;100.00
75895;BME280;64573;50.328;15.014;2023-10-09T04:27:18;99162.88;;;12.62;100.00
75895;BME280;64573;50.328;15.014;2023-10-09T04:29:52;99158.91;;;12.79;100.00
75895;BME280;64573;50.328;15.014;2023-10-09T04:32:19;99148.94;;;12.58;100.00
75895;BME280;64573;50.328;15.014;2023-10-09T04:34:45;99117.66;;;12.72;100.00
75895;BME280;64573;50.328;15.014;2023-10-09T04:37:45;99125.22;;;12.62;100.00
75895;BME280;64573;50.328;15.014;2023-10-09T04:40:17;99125.91;;;12.70;100.00
75895;BME280;64573;50.328;15.014;2023-10-09T04:43:01;99124.19;;;12.84;100.00
75895;BME280;64573;50.328;15.014;2023-10-09T04:45:35;99126.69;;;13.07;100.00
75895;BME280;64573;50.328;15.014;2023-10-09T04:48:12;99124.03;;;13.63;100.00
75895;BME280;64573;50.328;15.014;2023-10-09T04:50:57;99138.31;;;13.92;100.00
75895;BME280;64573;50.328;15.014;2023-10-09T04:53:41;99153.78;;;13.48;100.00
75895;BME280;64573;50.328;15.014;2023-10-09T04:56:14;99160.44;;;13.52;100.00
75895;BME280;64573;50.328;15.014;2023-10-09T04:58:42;99153.63;;;13.29;100.00
75895;BME280;64573;50.328;15.014;2023-10-09T05:01:09;99157.44;;;13.19;100.00
75895;BME280;64573;50.328;15.014;2023-10-09T05:03:39;99162.34;;;13.31;100.00
75895;BME280;64573;50.328;15.014;2023-10-09T05:06:11;99156.91;;;13.52;100.00
75895;BME280;64573;50.328;15.014;2023-10-09T05:08:48;99155.03;;;13.24;100.00
75895;BME280;64573;50.328;15.014;2023-10-09T05:11:14;99138.03;;;13.24;100.00
75895;BME280;64573;50.328;15.014;2023-10-09T05:13:59;99134.50;;;13.23;100.00
75895;BME280;64573;50.328;15.014;2023-10-09T05:16:37;99136.97;;;13.46;100.00
75895;BME280;64573;50.328;15.014;2023-10-09T05:19:12;99119.84;;;13.05;100.00
75895;BME280;64573;50.328;15.014;2023-10-09T05:21:57;99119.16;;;13.03;100.00
75895;BME280;64573;50.328;15.014;2023-10-09T05:24:32;99103.28;;;13.57;100.00
75895;BME280;64573;50.328;15.014;2023-10-09T05:27:08;99119.63;;;13.06;100.00
75895;BME280;64573;50.328;15.014;2023-10-09T05:29:43;99109.50;;;13.58;100.00
75895;BME280;64573;50.328;15.014;2023-10-09T05:32:24;99136.06;;;13.18;100.00
75895;BME280;64573;50.328;15.014;2023-10-09T05:34:55;99122.97;;;13.58;100.00
75895;BME280;64573;50.328;15.014;2023-10-09T05:37:27;99123.94;;;13.50;100.00
75895;BME280;64573;50.328;15.014;2023-10-09T05:40:04;99111.78;;;13.61;100.00
75895;BME280;64573;50.328;15.014;2023-10-09T05:42:41;99121.56;;;13.34;100.00
75895;BME280;64573;50.328;15.014;2023-10-09T05:45:08;99123.84;;;13.37;100.00
75895;BME280;64573;50.328;15.014;2023-10-09T05:47:50;99113.47;;;13.62;100.00
75895;BME280;64573;50.328;15.014;2023-10-09T05:50:23;99117.22;;;13.67;100.00
75895;BME280;64573;50.328;15.014;2023-10-09T05:52:49;99115.72;;;13.09;100.00
75895;BME280;64573;50.328;15.014;2023-10-09T05:55:18;99103.47;;;13.28;100.00
75895;BME280;64573;50.328;15.014;2023-10-09T05:57:53;99110.59;;;13.14;100.00
75895;BME280;64573;50.328;15.014;2023-10-09T06:00:34;99115.72;;;13.30;100.00
75895;BME280;64573;50.328;15.014;2023-10-09T06:03:18;99104.59;;;13.40;100.00
75895;BME280;64573;50.328;15.014;2023-10-09T06:05:46;99100.13;;;13.53;100.00
75895;BME280;64573;50.328;15.014;2023-10-09T06:08:27;99080.06;;;13.56;100.00
75895;BME280;64573;50.328;15.014;2023-10-09T06:11:07;99084.13;;;13.80;100.00
75895;BME280;64573;50.328;15.014;2023-10-09T06:13:55;99064.28;;;13.94;100.00
75895;BME280;64573;50.328;15.014;2023-10-09T06:16:34;99076.91;;;13.24;100.00
75895;BME280;64573;50.328;15.014;2023-10-09T06:19:25;99046.22;;;13.19;100.00
75895;BME280;64573;50.328;15.014;2023-10-09T06:21:55;99042.97;;;13.02;100.00
75895;BME280;64573;50.328;15.014;2023-10-09T06:24:40;99060.28;;;12.93;100.00
75895;BME280;64573;50.328;15.014;2023-10-09T06:27:18;99067.34;;;12.94;100.00
75895;BME280;64573;50.328;15.014;2023-10-09T06:29:57;99063.16;;;13.13;100.00
75895;BME280;64573;50.328;15.014;2023-10-09T06:32:38;99062.56;;;12.89;100.00
75895;BME280;64573;50.328;15.014;2023-10-09T06:35:14;99079.53;;;13.18;100.00
75895;BME280;64573;50.328;15.014;2023-10-09T06:37:48;99070.97;;;13.29;100.00
75895;BME280;64573;50.328;15.014;2023-10-09T06:43:48;99066.22;;;13.10;100.00
75895;BME280;64573;50.328;15.014;2023-10-09T06:46:18;99062.06;;;13.07;100.00
75895;BME280;64573;50.328;15.014;2023-10-09T06:48:49;99065.06;;;12.69;100.00
75895;BME280;64573;50.328;15.014;2023-10-09T06:51:25;99063.84;;;13.21;100.00
75895;BME280;64573;50.328;15.014;2023-10-09T06:53:54;99061.53;;;13.18;100.00
75895;BME280;64573;50.328;15.014;2023-10-09T06:56:23;99065.88;;;13.41;100.00
75895;BME280;64573;50.328;15.014;2023-10-09T06:58:55;99072.91;;;12.92;100.00
75895;BME280;64573;50.328;15.014;2023-10-09T07:01:24;99080.31;;;13.33;100.00
75895;BME280;64573;50.328;15.014;2023-10-09T07:03:53;99074.22;;;13.87;100.00
75895;BME280;64573;50.328;15.014;2023-10-09T07:06:20;99082.78;;;13.63;100.00
75895;BME280;64573;50.328;15.014;2023-10-09T07:09:01;99082.84;;;14.17;100.00
75895;BME280;64573;50.328;15.014;2023-10-09T07:11:42;99082.75;;;13.91;100.00
75895;BME280;64573;50.328;15.014;2023-10-09T07:14:09;99079.25;;;14.51;100.00
75895;BME280;64573;50.328;15.014;2023-10-09T07:16:55;99078.75;;;14.28;100.00
75895;BME280;64573;50.328;15.014;2023-10-09T07:19:24;99065.16;;;14.69;100.00
75895;BME280;64573;50.328;15.014;2023-10-09T07:22:04;99065.78;;;14.03;100.00
75895;BME280;64573;50.328;15.014;2023-10-09T07:24:41;99059.34;;;14.59;100.00
75895;BME280;64573;50.328;15.014;2023-10-09T07:27:09;99047.84;;;14.37;100.00
75895;BME280;64573;50.328;15.014;2023-10-09T07:29:39;99057.84;;;13.95;100.00
75895;BME280;64573;50.328;15.014;2023-10-09T07:32:16;99063.97;;;13.35;100.00
75895;BME280;64573;50.328;15.014;2023-10-09T07:34:48;99054.41;;;13.67;100.00
75895;BME280;64573;50.328;15.014;2023-10-09T07:37:28;99062.53;;;13.39;100.00
75895;BME280;64573;50.328;15.014;2023-10-09T07:40:02;99056.75;;;13.42;100.00
75895;BME280;64573;50.328;15.014;2023-10-09T07:42:32;99070.19;;;13.70;100.00
75895;BME280;64573;50.328;15.014;2023-10-09T07:45:07;99066.03;;;13.74;100.00
75895;BME280;64573;50.328;15.014;2023-10-09T07:47:47;99056.91;;;14.16;100.00
75895;BME280;64573;50.328;15.014;2023-10-09T07:50:25;99068.03;;;14.61;100.00
75895;BME280;64573;50.328;15.014;2023-10-09T07:52:59;99082.22;;;14.15;100.00
75895;BME280;64573;50.328;15.014;2023-10-09T07:55:40;99095.25;;;14.12;100.00
75895;BME280;64573;50.328;15.014;2023-10-09T07:58:11;99103.25;;;13.85;100.00
75895;BME280;64573;50.328;15.014;2023-10-09T08:00:37;99096.59;;;14.29;100.00
75895;BME280;64573;50.328;15.014;2023-10-09T08:03:22;99088.25;;;14.85;100.00
75895;BME280;64573;50.328;15.014;2023-10-09T08:05:52;99086.13;;;14.74;100.00
75895;BME280;64573;50.328;15.014;2023-10-09T08:08:19;99083.63;;;14.11;100.00
75895;BME280;64573;50.328;15.014;2023-10-09T08:10:53;99077.22;;;14.05;100.00
75895;BME280;64573;50.328;15.014;2023-10-09T08:13:37;99081.34;;;14.08;100.00
75895;BME280;64573;50.328;15.014;2023-10-09T08:16:14;99079.53;;;14.15;100.00
75895;BME280;64573;50.328;15.014;2023-10-09T08:18:47;99076.97;;;14.55;100.00
75895;BME280;64573;50.328;15.014;2023-10-09T08:21:16;99068.28;;;14.66;100.00
75895;BME280;64573;50.328;15.014;2023-10-09T08:23:41;99082.16;;;14.02;100.00
75895;BME280;64573;50.328;15.014;2023-10-09T08:26:29;99067.47;;;14.92;100.00
75895;BME280;64573;50.328;15.014;2023-10-09T08:28:56;99059.34;;;14.66;100.00
75895;BME280;64573;50.328;15.014;2023-10-09T08:31:40;99059.78;;;15.29;100.00
75895;BME280;64573;50.328;15.014;2023-10-09T08:34:13;99054.78;;;14.73;100.00
75895;BME280;64573;50.328;15.014;2023-10-09T08:36:49;99062.06;;;15.05;100.00
75895;BME280;64573;50.328;15.014;2023-10-09T08:39:18;99057.22;;;15.74;100.00
75895;BME280;64573;50.328;15.014;2023-10-09T08:41:54;99063.84;;;15.78;100.00
75895;BME280;64573;50.328;15.014;2023-10-09T08:44:33;99066.19;;;15.67;100.00
75895;BME280;64573;50.328;15.014;2023-10-09T08:47:00;99059.56;;;15.30;100.00
75895;BME280;64573;50.328;15.014;2023-10-09T08:49:26;99072.66;;;15.13;100.00
75895;BME280;64573;50.328;15.014;2023-10-09T08:51:51;99079.09;;;15.12;100.00
75895;BME280;64573;50.328;15.014;2023-10-09T08:54:20;99062.63;;;15.80;100.00
75895;BME280;64573;50.328;15.014;2023-10-09T08:56:46;99083.25;;;15.61;100.00
75895;BME280;64573;50.328;15.014;2023-10-09T08:59:20;99089.50;;;14.96;100.00
75895;BME280;64573;50.328;15.014;2023-10-09T09:01:50;99081.81;;;14.99;100.00
75895;BME280;64573;50.328;15.014;2023-10-09T09:04:40;99077.03;;;14.88;100.00
75895;BME280;64573;50.328;15.014;2023-10-09T09:07:11;99075.59;;;14.92;100.00
75895;BME280;64573;50.328;15.014;2023-10-09T09:09:59;99074.09;;;14.76;100.00
75895;BME280;64573;50.328;15.014;2023-10-09T09:12:43;99070.31;;;15.77;100.00
75895;BME280;64573;50.328;15.014;2023-10-09T09:15:16;99086.75;;;14.76;100.00
75895;BME280;64573;50.328;15.014;2023-10-09T09:17:44;99084.34;;;14.33;100.00
75895;BME280;64573;50.328;15.014;2023-10-09T09:20:24;99093.41;;;14.67;100.00
75895;BME280;64573;50.328;15.014;2023-10-09T09:22:54;99094.66;;;14.71;100.00
75895;BME280;64573;50.328;15.014;2023-10-09T09:25:39;99096.06;;;14.53;100.00
75895;BME280;64573;50.328;15.014;2023-10-09T09:28:09;99095.91;;;14.14;100.00
75895;BME280;64573;50.328;15.014;2023-10-09T09:30:38;99088.75;;;13.93;100.00
75895;BME280;64573;50.328;15.014;2023-10-09T09:33:25;99096.22;;;13.07;100.00
75895;BME280;64573;50.328;15.014;2023-10-09T09:36:09;99084.69;;;13.69;100.00
75895;BME280;64573;50.328;15.014;2023-10-09T09:38:37;99078.22;;;14.04;100.00
75895;BME280;64573;50.328;15.014;2023-10-09T09:41:30;99083.59;;;13.98;100.00
75895;BME280;64573;50.328;15.014;2023-10-09T09:43:59;99076.47;;;14.38;100.00
75895;BME280;64573;50.328;15.014;2023-10-09T09:46:32;99082.34;;;14.55;100.00
75895;BME280;64573;50.328;15.014;2023-10-09T09:49:03;99094.69;;;15.37;100.00
75895;BME280;64573;50.328;15.014;2023-10-09T09:51:32;99083.66;;;14.99;100.00
75895;BME280;64573;50.328;15.014;2023-10-09T09:53:58;99087.19;;;15.65;100.00
75895;BME280;64573;50.328;15.014;2023-10-09T09:56:28;99084.09;;;16.20;100.00
75895;BME280;64573;50.328;15.014;2023-10-09T09:58:57;99078.94;;;16.50;100.00
75895;BME280;64573;50.328;15.014;2023-10-09T10:01:29;99086.28;;;16.36;100.00
75895;BME280;64573;50.328;15.014;2023-10-09T10:04:04;99077.03;;;16.19;100.00
75895;BME280;64573;50.328;15.014;2023-10-09T10:06:32;99071.16;;;16.22;100.00
75895;BME280;64573;50.328;15.014;2023-10-09T10:08:59;99073.53;;;16.50;100.00
75895;BME280;64573;50.328;15.014;2023-10-09T10:11:43;99060.72;;;16.70;100.00
75895;BME280;64573;50.328;15.014;2023-10-09T10:14:10;99050.19;;;16.55;100.00
75895;BME280;64573;50.328;15.014;2023-10-09T10:17:08;99039.28;;;16.37;100.00
75895;BME280;64573;50.328;15.014;2023-10-09T10:20:02;99038.56;;;16.48;100.00
75895;BME280;64573;50.328;15.014;2023-10-09T10:22:43;99046.22;;;16.90;100.00
75895;BME280;64573;50.328;15.014;2023-10-09T10:33:10;99076.53;;;16.35;100.00
75895;BME280;64573;50.328;15.014;2023-10-09T10:35:41;99083.22;;;16.33;100.00
75895;BME280;64573;50.328;15.014;2023-10-09T10:38:31;99090.66;;;15.86;100.00
75895;BME280;64573;50.328;15.014;2023-10-09T10:41:12;99072.59;;;16.31;100.00
75895;BME280;64573;50.328;15.014;2023-10-09T10:43:39;99064.22;;;16.77;100.00
75895;BME280;64573;50.328;15.014;2023-10-09T10:46:18;99054.16;;;16.85;100.00
75895;BME280;64573;50.328;15.014;2023-10-09T10:48:56;99058.53;;;16.86;100.00
75895;BME280;64573;50.328;15.014;2023-10-09T10:51:28;99062.03;;;16.93;100.00
75895;BME280;64573;50.328;15.014;2023-10-09T10:54:08;99040.97;;;17.38;100.00
75895;BME280;64573;50.328;15.014;2023-10-09T10:56:53;99022.13;;;17.68;100.00
75895;BME280;64573;50.328;15.014;2023-10-09T10:59:19;99011.00;;;17.76;100.00
75895;BME280;64573;50.328;15.014;2023-10-09T11:01:52;99005.28;;;17.84;100.00
75895;BME280;64573;50.328;15.014;2023-10-09T11:04:39;99006.38;;;17.95;100.00
75895;BME280;64573;50.328;15.014;2023-10-09T11:07:07;99010.38;;;18.11;100.00
75895;BME280;64573;50.328;15.014;2023-10-09T11:09:48;99008.56;;;17.86;100.00
75895;BME280;64573;50.328;15.014;2023-10-09T11:12:51;99019.53;;;18.10;100.00
75895;BME280;64573;50.328;15.014;2023-10-09T11:15:31;99025.09;;;17.85;100.00
75895;BME280;64573;50.328;15.014;2023-10-09T11:18:06;99026.22;;;16.91;100.00
75895;BME280;64573;50.328;15.014;2023-10-09T11:20:54;99035.56;;;16.95;100.00
75895;BME280;64573;50.328;15.014;2023-10-09T11:23:48;99041.44;;;17.17;100.00
75895;BME280;64573;50.328;15.014;2023-10-09T11:26:46;99040.31;;;17.43;100.00
75895;BME280;64573;50.328;15.014;2023-10-09T11:29:19;99025.34;;;17.15;100.00
75895;BME280;64573;50.328;15.014;2023-10-09T11:32:07;99022.34;;;17.48;100.00
75895;BME280;64573;50.328;15.014;2023-10-09T11:34:42;99022.00;;;17.38;100.00
75895;BME280;64573;50.328;15.014;2023-10-09T11:37:16;99030.66;;;17.72;100.00
75895;BME280;64573;50.328;15.014;2023-10-09T11:40:00;99018.97;;;17.53;100.00
75895;BME280;64573;50.328;15.014;2023-10-09T11:42:29;99020.16;;;17.57;100.00
75895;BME280;64573;50.328;15.014;2023-10-09T11:45:21;99024.38;;;18.08;100.00
75895;BME280;64573;50.328;15.014;2023-10-09T11:47:51;99013.56;;;17.89;100.00
75895;BME280;64573;50.328;15.014;2023-10-09T11:50:41;99012.31;;;17.49;100.00
75895;BME280;64573;50.328;15.014;2023-10-09T11:53:09;99015.59;;;16.89;100.00
75895;BME280;64573;50.328;15.014;2023-10-09T11:55:43;99014.84;;;16.44;100.00
75895;BME280;64573;50.328;15.014;2023-10-09T11:58:17;99009.88;;;16.72;100.00
75895;BME280;64573;50.328;15.014;2023-10-09T12:00:51;99006.97;;;17.42;100.00
75895;BME280;64573;50.328;15.014;2023-10-09T12:03:22;98995.06;;;17.98;100.00
75895;BME280;64573;50.328;15.014;2023-10-09T12:05:53;99000.56;;;17.36;100.00
75895;BME280;64573;50.328;15.014;2023-10-09T12:08:22;98996.50;;;17.46;100.00
75895;BME280;64573;50.328;15.014;2023-10-09T12:10:47;98997.72;;;17.06;100.00
75895;BME280;64573;50.328;15.014;2023-10-09T12:13:13;98994.09;;;16.69;100.00
75895;BME280;64573;50.328;15.014;2023-10-09T12:15:40;98991.19;;;16.01;100.00
75895;BME280;64573;50.328;15.014;2023-10-09T12:18:09;98992.63;;;16.67;100.00
75895;BME280;64573;50.328;15.014;2023-10-09T12:20:40;98993.28;;;16.62;100.00
75895;BME280;64573;50.328;15.014;2023-10-09T12:23:06;98982.47;;;16.87;100.00
75895;BME280;64573;50.328;15.014;2023-10-09T12:25:32;98997.69;;;17.50;100.00
75895;BME280;64573;50.328;15.014;2023-10-09T12:27:59;98979.94;;;17.54;100.00
75895;BME280;64573;50.328;15.014;2023-10-09T12:30:26;98982.97;;;17.02;100.00
75895;BME280;64573;50.328;15.014;2023-10-09T12:32:58;98983.13;;;17.07;100.00
75895;BME280;64573;50.328;15.014;2023-10-09T12:35:24;98970.19;;;17.09;100.00
75895;BME280;64573;50.328;15.014;2023-10-09T12:37:53;98967.38;;;16.98;100.00
75895;BME280;64573;50.328;15.014;2023-10-09T12:40:23;98974.22;;;17.00;100.00
75895;BME280;64573;50.328;15.014;2023-10-09T12:42:57;98958.69;;;17.69;100.00
75895;BME280;64573;50.328;15.014;2023-10-09T12:45:25;98954.72;;;18.02;100.00
75895;BME280;64573;50.328;15.014;2023-10-09T12:47:58;98955.03;;;18.24;100.00
75895;BME280;64573;50.328;15.014;2023-10-09T12:50:33;98952.72;;;18.27;100.00
75895;BME280;64573;50.328;15.014;2023-10-09T12:53:00;98946.81;;;18.30;100.00
75895;BME280;64573;50.328;15.014;2023-10-09T12:55:34;98952.38;;;17.57;100.00
75895;BME280;64573;50.328;15.014;2023-10-09T12:58:01;98955.03;;;18.12;100.00
75895;BME280;64573;50.328;15.014;2023-10-09T13:00:36;98957.41;;;18.20;100.00
75895;BME280;64573;50.328;15.014;2023-10-09T13:03:08;98974.84;;;17.02;100.00
75895;BME280;64573;50.328;15.014;2023-10-09T13:05:53;98964.88;;;17.40;100.00
75895;BME280;64573;50.328;15.014;2023-10-09T13:08:25;98974.09;;;16.00;100.00
75895;BME280;64573;50.328;15.014;2023-10-09T13:11:05;98971.97;;;16.97;100.00
75895;BME280;64573;50.328;15.014;2023-10-09T13:13:38;98973.44;;;16.68;100.00
75895;BME280;64573;50.328;15.014;2023-10-09T13:16:11;98964.50;;;16.93;100.00
75895;BME280;64573;50.328;15.014;2023-10-09T13:18:41;98966.66;;;16.59;100.00
75895;BME280;64573;50.328;15.014;2023-10-09T13:21:18;98970.00;;;16.30;100.00
75895;BME280;64573;50.328;15.014;2023-10-09T13:23:44;98975.47;;;16.16;100.00
75895;BME280;64573;50.328;15.014;2023-10-09T13:26:13;98976.34;;;16.10;100.00